Terminal Aerodrome Forecast
Issued by NWS Norman, OK

Home | Current Version | Previous Version | Text Only | Print | Product List | Glossary On
Versions: 1 2 3 4 5 6 7 8 9 10 11 12 13 14 15 16
000
FTUS44 KOUN 301720
TAFOKC
TAF
KOKC 301720Z 3018/3118 14008KT P6SM SCT070 SCT120 BKN200
     FM310000 15009KT P6SM SCT060 SCT250
     FM311500 20012G17KT P6SM FEW250=

USA.gov is the U.S. government's official web portal to all federal, state and local government web resources and services.